sensor_id;sensor_type;location;lat;lon;timestamp;P1;durP1;ratioP1;P2;durP2;ratioP2
7025;SDS011;3554;42.132;24.786;2023-04-24T00:00:58;6.60;;;5.87;;
7025;SDS011;3554;42.132;24.786;2023-04-24T00:03:26;7.17;;;6.50;;
7025;SDS011;3554;42.132;24.786;2023-04-24T00:05:54;7.07;;;6.37;;
7025;SDS011;3554;42.132;24.786;2023-04-24T00:08:22;8.83;;;6.63;;
7025;SDS011;3554;42.132;24.786;2023-04-24T00:10:49;8.73;;;6.97;;
7025;SDS011;3554;42.132;24.786;2023-04-24T00:13:17;7.77;;;6.07;;
7025;SDS011;3554;42.132;24.786;2023-04-24T00:15:44;6.37;;;5.87;;
7025;SDS011;3554;42.132;24.786;2023-04-24T00:18:11;6.27;;;5.87;;
7025;SDS011;3554;42.132;24.786;2023-04-24T00:20:37;7.13;;;6.53;;
7025;SDS011;3554;42.132;24.786;2023-04-24T00:23:04;7.23;;;6.73;;
7025;SDS011;3554;42.132;24.786;2023-04-24T00:25:33;10.83;;;7.07;;
7025;SDS011;3554;42.132;24.786;2023-04-24T00:27:59;6.17;;;5.63;;
7025;SDS011;3554;42.132;24.786;2023-04-24T00:30:26;7.67;;;7.07;;
7025;SDS011;3554;42.132;24.786;2023-04-24T00:32:53;6.97;;;6.47;;
7025;SDS011;3554;42.132;24.786;2023-04-24T00:35:20;7.63;;;6.67;;
7025;SDS011;3554;42.132;24.786;2023-04-24T00:37:46;7.03;;;6.53;;
7025;SDS011;3554;42.132;24.786;2023-04-24T00:40:13;7.60;;;6.73;;
7025;SDS011;3554;42.132;24.786;2023-04-24T00:42:41;7.53;;;6.67;;
7025;SDS011;3554;42.132;24.786;2023-04-24T00:45:10;7.10;;;6.60;;
7025;SDS011;3554;42.132;24.786;2023-04-24T00:47:37;7.70;;;5.80;;
7025;SDS011;3554;42.132;24.786;2023-04-24T00:50:05;7.23;;;6.60;;
7025;SDS011;3554;42.132;24.786;2023-04-24T00:52:33;6.80;;;6.13;;
7025;SDS011;3554;42.132;24.786;2023-04-24T00:55:00;7.63;;;7.10;;
7025;SDS011;3554;42.132;24.786;2023-04-24T00:57:27;7.00;;;6.30;;
7025;SDS011;3554;42.132;24.786;2023-04-24T00:59:56;7.67;;;6.93;;
7025;SDS011;3554;42.132;24.786;2023-04-24T01:02:23;6.77;;;6.27;;
7025;SDS011;3554;42.132;24.786;2023-04-24T01:04:51;6.70;;;6.07;;
7025;SDS011;3554;42.132;24.786;2023-04-24T01:07:18;6.80;;;6.03;;
7025;SDS011;3554;42.132;24.786;2023-04-24T01:09:46;8.47;;;5.93;;
7025;SDS011;3554;42.132;24.786;2023-04-24T01:12:16;7.30;;;6.70;;
7025;SDS011;3554;42.132;24.786;2023-04-24T01:14:43;7.77;;;7.00;;
7025;SDS011;3554;42.132;24.786;2023-04-24T01:17:12;9.37;;;7.00;;
7025;SDS011;3554;42.132;24.786;2023-04-24T01:19:40;7.13;;;6.73;;
7025;SDS011;3554;42.132;24.786;2023-04-24T01:22:11;7.73;;;7.13;;
7025;SDS011;3554;42.132;24.786;2023-04-24T01:24:40;7.00;;;6.53;;
7025;SDS011;3554;42.132;24.786;2023-04-24T01:27:07;7.90;;;7.30;;
7025;SDS011;3554;42.132;24.786;2023-04-24T01:29:35;8.57;;;7.77;;
7025;SDS011;3554;42.132;24.786;2023-04-24T01:32:02;10.47;;;8.07;;
7025;SDS011;3554;42.132;24.786;2023-04-24T01:34:30;8.13;;;7.43;;
7025;SDS011;3554;42.132;24.786;2023-04-24T01:36:57;10.03;;;8.47;;
7025;SDS011;3554;42.132;24.786;2023-04-24T01:39:25;13.20;;;8.90;;
7025;SDS011;3554;42.132;24.786;2023-04-24T01:41:54;13.33;;;8.67;;
7025;SDS011;3554;42.132;24.786;2023-04-24T01:44:22;9.13;;;8.40;;
7025;SDS011;3554;42.132;24.786;2023-04-24T01:46:49;11.37;;;8.60;;
7025;SDS011;3554;42.132;24.786;2023-04-24T01:49:16;9.57;;;8.17;;
7025;SDS011;3554;42.132;24.786;2023-04-24T01:51:43;8.87;;;8.03;;
7025;SDS011;3554;42.132;24.786;2023-04-24T01:54:10;15.57;;;7.80;;
7025;SDS011;3554;42.132;24.786;2023-04-24T01:56:38;10.37;;;8.10;;
7025;SDS011;3554;42.132;24.786;2023-04-24T01:59:08;9.53;;;8.57;;
7025;SDS011;3554;42.132;24.786;2023-04-24T02:01:36;8.60;;;8.00;;
7025;SDS011;3554;42.132;24.786;2023-04-24T02:04:03;11.27;;;9.37;;
7025;SDS011;3554;42.132;24.786;2023-04-24T02:06:30;13.60;;;8.67;;
7025;SDS011;3554;42.132;24.786;2023-04-24T02:08:57;8.97;;;8.17;;
7025;SDS011;3554;42.132;24.786;2023-04-24T02:11:24;15.97;;;9.83;;
7025;SDS011;3554;42.132;24.786;2023-04-24T02:13:53;11.00;;;9.90;;
7025;SDS011;3554;42.132;24.786;2023-04-24T02:16:19;14.27;;;9.70;;
7025;SDS011;3554;42.132;24.786;2023-04-24T02:18:47;13.13;;;10.07;;
7025;SDS011;3554;42.132;24.786;2023-04-24T02:21:13;12.10;;;9.20;;
7025;SDS011;3554;42.132;24.786;2023-04-24T02:23:40;12.07;;;9.60;;
7025;SDS011;3554;42.132;24.786;2023-04-24T02:26:07;10.77;;;9.77;;
7025;SDS011;3554;42.132;24.786;2023-04-24T02:28:34;10.57;;;9.67;;
7025;SDS011;3554;42.132;24.786;2023-04-24T02:31:03;18.43;;;10.03;;
7025;SDS011;3554;42.132;24.786;2023-04-24T02:33:30;11.03;;;10.03;;
7025;SDS011;3554;42.132;24.786;2023-04-24T02:35:57;14.60;;;10.90;;
7025;SDS011;3554;42.132;24.786;2023-04-24T02:38:23;17.60;;;11.07;;
7025;SDS011;3554;42.132;24.786;2023-04-24T02:40:50;12.70;;;11.30;;
7025;SDS011;3554;42.132;24.786;2023-04-24T02:43:17;11.37;;;10.27;;
7025;SDS011;3554;42.132;24.786;2023-04-24T02:45:44;13.30;;;11.27;;
7025;SDS011;3554;42.132;24.786;2023-04-24T02:48:12;12.67;;;10.80;;
7025;SDS011;3554;42.132;24.786;2023-04-24T02:50:39;13.27;;;11.50;;
7025;SDS011;3554;42.132;24.786;2023-04-24T02:53:05;22.00;;;11.37;;
7025;SDS011;3554;42.132;24.786;2023-04-24T02:55:32;12.30;;;11.13;;
7025;SDS011;3554;42.132;24.786;2023-04-24T02:57:59;12.43;;;11.27;;
7025;SDS011;3554;42.132;24.786;2023-04-24T03:00:26;16.70;;;12.13;;
7025;SDS011;3554;42.132;24.786;2023-04-24T03:02:53;16.07;;;11.57;;
7025;SDS011;3554;42.132;24.786;2023-04-24T03:05:21;12.37;;;11.23;;
7025;SDS011;3554;42.132;24.786;2023-04-24T03:07:48;17.73;;;11.53;;
7025;SDS011;3554;42.132;24.786;2023-04-24T03:10:14;15.47;;;12.07;;
7025;SDS011;3554;42.132;24.786;2023-04-24T03:12:41;11.97;;;10.93;;
7025;SDS011;3554;42.132;24.786;2023-04-24T03:15:08;20.93;;;11.90;;
7025;SDS011;3554;42.132;24.786;2023-04-24T03:17:35;20.20;;;11.20;;
7025;SDS011;3554;42.132;24.786;2023-04-24T03:20:02;18.03;;;10.87;;
7025;SDS011;3554;42.132;24.786;2023-04-24T03:22:32;13.20;;;11.27;;
7025;SDS011;3554;42.132;24.786;2023-04-24T03:24:59;15.80;;;11.20;;
7025;SDS011;3554;42.132;24.786;2023-04-24T03:27:26;13.07;;;11.70;;
7025;SDS011;3554;42.132;24.786;2023-04-24T03:29:53;18.73;;;11.23;;
7025;SDS011;3554;42.132;24.786;2023-04-24T03:32:20;11.20;;;10.30;;
7025;SDS011;3554;42.132;24.786;2023-04-24T03:34:47;16.17;;;11.77;;
7025;SDS011;3554;42.132;24.786;2023-04-24T03:37:14;13.17;;;11.77;;
7025;SDS011;3554;42.132;24.786;2023-04-24T03:39:42;16.00;;;11.67;;
7025;SDS011;3554;42.132;24.786;2023-04-24T03:42:09;14.17;;;11.23;;
7025;SDS011;3554;42.132;24.786;2023-04-24T03:44:36;15.23;;;11.07;;
7025;SDS011;3554;42.132;24.786;2023-04-24T03:47:02;20.60;;;11.67;;
7025;SDS011;3554;42.132;24.786;2023-04-24T03:49:29;14.07;;;11.00;;
7025;SDS011;3554;42.132;24.786;2023-04-24T03:51:56;17.43;;;12.30;;
7025;SDS011;3554;42.132;24.786;2023-04-24T03:54:23;15.60;;;12.17;;
7025;SDS011;3554;42.132;24.786;2023-04-24T03:56:51;15.87;;;12.40;;
7025;SDS011;3554;42.132;24.786;2023-04-24T03:59:18;12.83;;;11.03;;
7025;SDS011;3554;42.132;24.786;2023-04-24T04:01:45;16.63;;;11.10;;
7025;SDS011;3554;42.132;24.786;2023-04-24T04:04:12;16.20;;;11.17;;
7025;SDS011;3554;42.132;24.786;2023-04-24T04:06:39;16.27;;;11.97;;
7025;SDS011;3554;42.132;24.786;2023-04-24T04:09:06;15.80;;;11.07;;
7025;SDS011;3554;42.132;24.786;2023-04-24T04:11:33;11.97;;;10.70;;
7025;SDS011;3554;42.132;24.786;2023-04-24T04:14:02;16.60;;;10.67;;
7025;SDS011;3554;42.132;24.786;2023-04-24T04:16:28;11.80;;;10.73;;
7025;SDS011;3554;42.132;24.786;2023-04-24T04:18:55;10.80;;;9.77;;
7025;SDS011;3554;42.132;24.786;2023-04-24T04:21:22;14.73;;;10.80;;
7025;SDS011;3554;42.132;24.786;2023-04-24T04:23:49;10.63;;;9.50;;
7025;SDS011;3554;42.132;24.786;2023-04-24T04:26:16;10.90;;;9.73;;
7025;SDS011;3554;42.132;24.786;2023-04-24T04:28:44;13.13;;;9.67;;
7025;SDS011;3554;42.132;24.786;2023-04-24T04:31:12;12.37;;;10.23;;
7025;SDS011;3554;42.132;24.786;2023-04-24T04:33:39;16.60;;;13.00;;
7025;SDS011;3554;42.132;24.786;2023-04-24T04:36:05;21.77;;;13.83;;
7025;SDS011;3554;42.132;24.786;2023-04-24T04:38:33;18.73;;;12.70;;
7025;SDS011;3554;42.132;24.786;2023-04-24T04:41:00;22.13;;;11.10;;
7025;SDS011;3554;42.132;24.786;2023-04-24T04:43:27;12.57;;;9.77;;
7025;SDS011;3554;42.132;24.786;2023-04-24T04:45:54;12.27;;;10.47;;
7025;SDS011;3554;42.132;24.786;2023-04-24T04:48:22;18.23;;;10.63;;
7025;SDS011;3554;42.132;24.786;2023-04-24T04:50:49;17.07;;;9.93;;
7025;SDS011;3554;42.132;24.786;2023-04-24T04:53:16;19.60;;;10.13;;
7025;SDS011;3554;42.132;24.786;2023-04-24T04:55:42;11.40;;;10.23;;
7025;SDS011;3554;42.132;24.786;2023-04-24T04:58:09;10.93;;;9.80;;
7025;SDS011;3554;42.132;24.786;2023-04-24T05:00:36;15.27;;;9.63;;
7025;SDS011;3554;42.132;24.786;2023-04-24T05:03:03;17.93;;;9.73;;
7025;SDS011;3554;42.132;24.786;2023-04-24T05:05:31;10.63;;;9.13;;
7025;SDS011;3554;42.132;24.786;2023-04-24T05:07:58;9.80;;;8.90;;
7025;SDS011;3554;42.132;24.786;2023-04-24T05:10:25;13.47;;;8.83;;
7025;SDS011;3554;42.132;24.786;2023-04-24T05:12:52;14.03;;;9.03;;
7025;SDS011;3554;42.132;24.786;2023-04-24T05:15:18;9.50;;;8.60;;
7025;SDS011;3554;42.132;24.786;2023-04-24T05:17:45;8.63;;;7.93;;
7025;SDS011;3554;42.132;24.786;2023-04-24T05:20:12;12.60;;;8.40;;
7025;SDS011;3554;42.132;24.786;2023-04-24T05:22:41;16.40;;;8.63;;
7025;SDS011;3554;42.132;24.786;2023-04-24T05:25:08;12.03;;;8.60;;
7025;SDS011;3554;42.132;24.786;2023-04-24T05:27:35;13.50;;;8.77;;
7025;SDS011;3554;42.132;24.786;2023-04-24T05:30:02;10.00;;;7.87;;
7025;SDS011;3554;42.132;24.786;2023-04-24T05:32:29;12.10;;;7.43;;
7025;SDS011;3554;42.132;24.786;2023-04-24T05:34:56;10.40;;;9.00;;
7025;SDS011;3554;42.132;24.786;2023-04-24T05:37:23;11.73;;;9.90;;
7025;SDS011;3554;42.132;24.786;2023-04-24T05:39:51;12.93;;;9.83;;
7025;SDS011;3554;42.132;24.786;2023-04-24T05:42:18;7.53;;;7.03;;
7025;SDS011;3554;42.132;24.786;2023-04-24T05:44:44;8.83;;;6.53;;
7025;SDS011;3554;42.132;24.786;2023-04-24T05:47:11;7.47;;;6.63;;
7025;SDS011;3554;42.132;24.786;2023-04-24T05:49:38;6.37;;;5.97;;
7025;SDS011;3554;42.132;24.786;2023-04-24T05:52:05;7.53;;;6.83;;
7025;SDS011;3554;42.132;24.786;2023-04-24T05:54:33;7.33;;;6.67;;
7025;SDS011;3554;42.132;24.786;2023-04-24T05:57:02;7.73;;;7.00;;
7025;SDS011;3554;42.132;24.786;2023-04-24T05:59:32;7.90;;;7.10;;
7025;SDS011;3554;42.132;24.786;2023-04-24T06:01:59;8.77;;;7.97;;
7025;SDS011;3554;42.132;24.786;2023-04-24T06:04:26;8.97;;;8.23;;
7025;SDS011;3554;42.132;24.786;2023-04-24T06:06:53;9.50;;;8.77;;
7025;SDS011;3554;42.132;24.786;2023-04-24T06:09:21;10.00;;;8.07;;
7025;SDS011;3554;42.132;24.786;2023-04-24T06:11:48;7.93;;;7.27;;
7025;SDS011;3554;42.132;24.786;2023-04-24T06:14:16;8.60;;;7.80;;
7025;SDS011;3554;42.132;24.786;2023-04-24T06:16:43;7.70;;;7.30;;
7025;SDS011;3554;42.132;24.786;2023-04-24T06:19:10;7.77;;;6.40;;
7025;SDS011;3554;42.132;24.786;2023-04-24T06:21:37;7.27;;;6.83;;
7025;SDS011;3554;42.132;24.786;2023-04-24T06:24:04;8.43;;;7.00;;
7025;SDS011;3554;42.132;24.786;2023-04-24T06:26:30;6.90;;;6.27;;
7025;SDS011;3554;42.132;24.786;2023-04-24T06:28:57;7.70;;;6.90;;
7025;SDS011;3554;42.132;24.786;2023-04-24T06:31:26;7.37;;;6.70;;
7025;SDS011;3554;42.132;24.786;2023-04-24T06:33:53;7.60;;;6.90;;
7025;SDS011;3554;42.132;24.786;2023-04-24T06:36:20;8.23;;;7.10;;
7025;SDS011;3554;42.132;24.786;2023-04-24T06:38:47;8.07;;;6.73;;
7025;SDS011;3554;42.132;24.786;2023-04-24T06:41:14;7.43;;;6.70;;
7025;SDS011;3554;42.132;24.786;2023-04-24T06:43:40;8.27;;;7.13;;
7025;SDS011;3554;42.132;24.786;2023-04-24T06:46:07;7.03;;;6.40;;
7025;SDS011;3554;42.132;24.786;2023-04-24T06:48:35;7.67;;;6.97;;
7025;SDS011;3554;42.132;24.786;2023-04-24T06:51:02;8.00;;;7.37;;
7025;SDS011;3554;42.132;24.786;2023-04-24T06:53:29;8.23;;;6.90;;
7025;SDS011;3554;42.132;24.786;2023-04-24T06:55:56;7.20;;;6.67;;
7025;SDS011;3554;42.132;24.786;2023-04-24T06:58:23;10.43;;;7.97;;
7025;SDS011;3554;42.132;24.786;2023-04-24T07:00:51;8.00;;;7.40;;
7025;SDS011;3554;42.132;24.786;2023-04-24T07:03:17;8.40;;;7.37;;
7025;SDS011;3554;42.132;24.786;2023-04-24T07:05:46;8.67;;;7.83;;
7025;SDS011;3554;42.132;24.786;2023-04-24T07:08:13;9.77;;;8.80;;
7025;SDS011;3554;42.132;24.786;2023-04-24T07:10:42;8.37;;;7.77;;
7025;SDS011;3554;42.132;24.786;2023-04-24T07:13:09;9.87;;;8.13;;
7025;SDS011;3554;42.132;24.786;2023-04-24T07:15:36;9.07;;;8.27;;
7025;SDS011;3554;42.132;24.786;2023-04-24T07:18:02;8.80;;;7.87;;
7025;SDS011;3554;42.132;24.786;2023-04-24T07:20:29;8.93;;;8.40;;
7025;SDS011;3554;42.132;24.786;2023-04-24T07:22:57;12.23;;;7.83;;
7025;SDS011;3554;42.132;24.786;2023-04-24T07:25:24;8.03;;;7.40;;
7025;SDS011;3554;42.132;24.786;2023-04-24T07:27:51;9.03;;;8.27;;
7025;SDS011;3554;42.132;24.786;2023-04-24T07:30:19;12.00;;;8.07;;
7025;SDS011;3554;42.132;24.786;2023-04-24T07:32:45;9.47;;;8.30;;
7025;SDS011;3554;42.132;24.786;2023-04-24T07:35:12;11.53;;;7.13;;
7025;SDS011;3554;42.132;24.786;2023-04-24T07:37:39;9.03;;;8.30;;
7025;SDS011;3554;42.132;24.786;2023-04-24T07:40:12;7.80;;;7.13;;
7025;SDS011;3554;42.132;24.786;2023-04-24T07:42:39;11.37;;;8.40;;
7025;SDS011;3554;42.132;24.786;2023-04-24T07:45:06;9.37;;;8.43;;
7025;SDS011;3554;42.132;24.786;2023-04-24T07:47:34;16.10;;;7.37;;
7025;SDS011;3554;42.132;24.786;2023-04-24T07:50:02;8.73;;;7.83;;
7025;SDS011;3554;42.132;24.786;2023-04-24T07:52:29;7.70;;;7.20;;
7025;SDS011;3554;42.132;24.786;2023-04-24T07:54:56;8.30;;;7.80;;
7025;SDS011;3554;42.132;24.786;2023-04-24T07:57:26;8.33;;;7.43;;
7025;SDS011;3554;42.132;24.786;2023-04-24T07:59:54;8.40;;;7.07;;
7025;SDS011;3554;42.132;24.786;2023-04-24T08:02:20;8.17;;;7.37;;
7025;SDS011;3554;42.132;24.786;2023-04-24T08:04:51;8.37;;;7.70;;
7025;SDS011;3554;42.132;24.786;2023-04-24T08:07:18;7.53;;;6.93;;
7025;SDS011;3554;42.132;24.786;2023-04-24T08:09:45;7.60;;;6.83;;
7025;SDS011;3554;42.132;24.786;2023-04-24T08:12:11;7.97;;;7.27;;
7025;SDS011;3554;42.132;24.786;2023-04-24T08:14:40;9.00;;;8.30;;
7025;SDS011;3554;42.132;24.786;2023-04-24T08:17:07;9.20;;;7.77;;
7025;SDS011;3554;42.132;24.786;2023-04-24T08:19:33;8.30;;;7.30;;
7025;SDS011;3554;42.132;24.786;2023-04-24T08:22:00;8.53;;;7.77;;
7025;SDS011;3554;42.132;24.786;2023-04-24T08:24:27;7.63;;;7.13;;
7025;SDS011;3554;42.132;24.786;2023-04-24T08:26:54;7.97;;;7.17;;
7025;SDS011;3554;42.132;24.786;2023-04-24T08:29:23;7.93;;;7.30;;
7025;SDS011;3554;42.132;24.786;2023-04-24T08:31:51;8.50;;;7.03;;
7025;SDS011;3554;42.132;24.786;2023-04-24T08:34:19;8.40;;;7.53;;
7025;SDS011;3554;42.132;24.786;2023-04-24T08:36:46;8.10;;;7.40;;
7025;SDS011;3554;42.132;24.786;2023-04-24T08:39:13;7.83;;;7.33;;
7025;SDS011;3554;42.132;24.786;2023-04-24T08:41:41;8.20;;;7.33;;
7025;SDS011;3554;42.132;24.786;2023-04-24T08:44:10;9.27;;;7.77;;
7025;SDS011;3554;42.132;24.786;2023-04-24T08:46:39;8.07;;;7.23;;
7025;SDS011;3554;42.132;24.786;2023-04-24T08:49:08;8.23;;;7.40;;
7025;SDS011;3554;42.132;24.786;2023-04-24T08:51:35;8.40;;;7.70;;
7025;SDS011;3554;42.132;24.786;2023-04-24T08:54:04;7.60;;;7.20;;
7025;SDS011;3554;42.132;24.786;2023-04-24T08:56:32;7.53;;;6.90;;
7025;SDS011;3554;42.132;24.786;2023-04-24T08:59:02;7.53;;;6.93;;
7025;SDS011;3554;42.132;24.786;2023-04-24T09:01:30;8.03;;;7.30;;
7025;SDS011;3554;42.132;24.786;2023-04-24T09:03:59;7.30;;;6.77;;
7025;SDS011;3554;42.132;24.786;2023-04-24T09:06:29;10.37;;;7.03;;
7025;SDS011;3554;42.132;24.786;2023-04-24T09:08:57;8.30;;;7.20;;
7025;SDS011;3554;42.132;24.786;2023-04-24T09:11:27;10.00;;;8.20;;
7025;SDS011;3554;42.132;24.786;2023-04-24T09:13:54;7.63;;;7.13;;
7025;SDS011;3554;42.132;24.786;2023-04-24T09:16:21;6.90;;;6.50;;
7025;SDS011;3554;42.132;24.786;2023-04-24T09:18:49;7.33;;;6.93;;
7025;SDS011;3554;42.132;24.786;2023-04-24T09:21:16;7.10;;;6.20;;
7025;SDS011;3554;42.132;24.786;2023-04-24T09:23:44;7.33;;;6.93;;
7025;SDS011;3554;42.132;24.786;2023-04-24T09:26:11;7.30;;;6.60;;
7025;SDS011;3554;42.132;24.786;2023-04-24T09:28:40;7.20;;;6.70;;
7025;SDS011;3554;42.132;24.786;2023-04-24T09:31:08;7.00;;;6.13;;
7025;SDS011;3554;42.132;24.786;2023-04-24T09:33:36;6.07;;;5.57;;
7025;SDS011;3554;42.132;24.786;2023-04-24T09:36:03;7.03;;;6.33;;
7025;SDS011;3554;42.132;24.786;2023-04-24T09:38:31;7.00;;;6.37;;
7025;SDS011;3554;42.132;24.786;2023-04-24T09:41:00;7.23;;;5.97;;
7025;SDS011;3554;42.132;24.786;2023-04-24T09:43:29;7.13;;;6.57;;
7025;SDS011;3554;42.132;24.786;2023-04-24T09:45:56;6.80;;;6.30;;
7025;SDS011;3554;42.132;24.786;2023-04-24T09:48:30;8.03;;;7.00;;
7025;SDS011;3554;42.132;24.786;2023-04-24T09:50:57;7.70;;;7.00;;
7025;SDS011;3554;42.132;24.786;2023-04-24T09:53:25;7.70;;;6.93;;
7025;SDS011;3554;42.132;24.786;2023-04-24T09:55:53;6.67;;;6.17;;
7025;SDS011;3554;42.132;24.786;2023-04-24T09:58:25;6.87;;;6.23;;
7025;SDS011;3554;42.132;24.786;2023-04-24T10:00:55;6.47;;;6.07;;
7025;SDS011;3554;42.132;24.786;2023-04-24T10:03:23;8.80;;;6.30;;
7025;SDS011;3554;42.132;24.786;2023-04-24T10:05:52;6.70;;;6.20;;
7025;SDS011;3554;42.132;24.786;2023-04-24T10:08:20;6.20;;;5.90;;
7025;SDS011;3554;42.132;24.786;2023-04-24T10:10:47;6.70;;;6.10;;
7025;SDS011;3554;42.132;24.786;2023-04-24T10:13:14;6.47;;;5.97;;
7025;SDS011;3554;42.132;24.786;2023-04-24T10:15:43;7.03;;;6.43;;
7025;SDS011;3554;42.132;24.786;2023-04-24T10:18:10;6.17;;;5.57;;
7025;SDS011;3554;42.132;24.786;2023-04-24T10:20:38;5.83;;;5.53;;
7025;SDS011;3554;42.132;24.786;2023-04-24T10:23:06;6.67;;;6.03;;
7025;SDS011;3554;42.132;24.786;2023-04-24T10:25:33;7.67;;;5.90;;
7025;SDS011;3554;42.132;24.786;2023-04-24T10:28:01;6.33;;;5.90;;
7025;SDS011;3554;42.132;24.786;2023-04-24T10:30:29;6.47;;;6.07;;
7025;SDS011;3554;42.132;24.786;2023-04-24T10:33:01;5.67;;;5.27;;
7025;SDS011;3554;42.132;24.786;2023-04-24T10:35:30;5.97;;;5.70;;
7025;SDS011;3554;42.132;24.786;2023-04-24T10:37:59;5.63;;;5.23;;
7025;SDS011;3554;42.132;24.786;2023-04-24T10:40:30;6.67;;;5.80;;
7025;SDS011;3554;42.132;24.786;2023-04-24T10:42:58;6.67;;;5.80;;
7025;SDS011;3554;42.132;24.786;2023-04-24T10:45:25;7.57;;;6.97;;
7025;SDS011;3554;42.132;24.786;2023-04-24T10:47:53;6.87;;;6.27;;
7025;SDS011;3554;42.132;24.786;2023-04-24T10:50:25;6.73;;;6.33;;
7025;SDS011;3554;42.132;24.786;2023-04-24T10:52:53;6.63;;;6.07;;
7025;SDS011;3554;42.132;24.786;2023-04-24T10:58:08;5.87;;;5.37;;
7025;SDS011;3554;42.132;24.786;2023-04-24T11:00:36;6.67;;;5.90;;
7025;SDS011;3554;42.132;24.786;2023-04-24T11:03:04;6.27;;;5.87;;
7025;SDS011;3554;42.132;24.786;2023-04-24T11:08:23;9.03;;;6.00;;
7025;SDS011;3554;42.132;24.786;2023-04-24T11:10:59;8.23;;;5.30;;
7025;SDS011;3554;42.132;24.786;2023-04-24T11:13:28;5.50;;;5.00;;
7025;SDS011;3554;42.132;24.786;2023-04-24T11:16:39;5.40;;;5.10;;
7025;SDS011;3554;42.132;24.786;2023-04-24T11:19:17;6.27;;;5.83;;
7025;SDS011;3554;42.132;24.786;2023-04-24T11:21:47;5.33;;;4.93;;
7025;SDS011;3554;42.132;24.786;2023-04-24T11:27:06;5.63;;;5.17;;
7025;SDS011;3554;42.132;24.786;2023-04-24T11:29:44;10.63;;;5.63;;
7025;SDS011;3554;42.132;24.786;2023-04-24T11:32:16;5.27;;;4.97;;
7025;SDS011;3554;42.132;24.786;2023-04-24T11:34:45;5.43;;;5.13;;
7025;SDS011;3554;42.132;24.786;2023-04-24T11:37:12;5.40;;;4.90;;
7025;SDS011;3554;42.132;24.786;2023-04-24T11:39:40;5.53;;;5.03;;
7025;SDS011;3554;42.132;24.786;2023-04-24T11:42:06;5.60;;;4.90;;
7025;SDS011;3554;42.132;24.786;2023-04-24T11:44:35;5.17;;;4.73;;
7025;SDS011;3554;42.132;24.786;2023-04-24T11:47:04;4.90;;;4.70;;
7025;SDS011;3554;42.132;24.786;2023-04-24T11:49:31;4.70;;;4.50;;
7025;SDS011;3554;42.132;24.786;2023-04-24T11:51:57;6.20;;;4.80;;
7025;SDS011;3554;42.132;24.786;2023-04-24T11:54:25;5.03;;;4.63;;
7025;SDS011;3554;42.132;24.786;2023-04-24T11:56:52;7.00;;;4.73;;
7025;SDS011;3554;42.132;24.786;2023-04-24T11:59:19;5.77;;;5.27;;
7025;SDS011;3554;42.132;24.786;2023-04-24T12:01:46;4.43;;;4.13;;
7025;SDS011;3554;42.132;24.786;2023-04-24T12:04:15;4.77;;;4.37;;
7025;SDS011;3554;42.132;24.786;2023-04-24T12:09:27;5.57;;;5.03;;
7025;SDS011;3554;42.132;24.786;2023-04-24T12:11:54;5.60;;;5.07;;
7025;SDS011;3554;42.132;24.786;2023-04-24T12:14:23;5.47;;;4.77;;
7025;SDS011;3554;42.132;24.786;2023-04-24T12:16:50;4.93;;;4.73;;
7025;SDS011;3554;42.132;24.786;2023-04-24T12:19:20;6.73;;;5.00;;
7025;SDS011;3554;42.132;24.786;2023-04-24T12:21:58;7.83;;;4.63;;
7025;SDS011;3554;42.132;24.786;2023-04-24T12:24:26;6.60;;;4.53;;
7025;SDS011;3554;42.132;24.786;2023-04-24T12:26:53;5.97;;;4.83;;
7025;SDS011;3554;42.132;24.786;2023-04-24T12:29:20;4.30;;;4.10;;
7025;SDS011;3554;42.132;24.786;2023-04-24T12:31:47;4.97;;;4.77;;
7025;SDS011;3554;42.132;24.786;2023-04-24T12:34:19;4.17;;;3.97;;
7025;SDS011;3554;42.132;24.786;2023-04-24T12:36:46;4.80;;;4.60;;
7025;SDS011;3554;42.132;24.786;2023-04-24T12:39:16;4.47;;;4.17;;
7025;SDS011;3554;42.132;24.786;2023-04-24T12:41:50;5.53;;;5.10;;
7025;SDS011;3554;42.132;24.786;2023-04-24T12:44:28;3.90;;;3.67;;
7025;SDS011;3554;42.132;24.786;2023-04-24T12:46:55;4.80;;;4.50;;
7025;SDS011;3554;42.132;24.786;2023-04-24T12:49:23;4.93;;;4.53;;
7025;SDS011;3554;42.132;24.786;2023-04-24T12:51:50;4.90;;;4.50;;
7025;SDS011;3554;42.132;24.786;2023-04-24T12:54:18;4.63;;;4.23;;
7025;SDS011;3554;42.132;24.786;2023-04-24T12:56:44;5.53;;;4.40;;
7025;SDS011;3554;42.132;24.786;2023-04-24T12:59:11;4.50;;;4.30;;
7025;SDS011;3554;42.132;24.786;2023-04-24T13:01:38;4.83;;;4.40;;
7025;SDS011;3554;42.132;24.786;2023-04-24T13:04:05;4.07;;;3.70;;
7025;SDS011;3554;42.132;24.786;2023-04-24T13:06:33;4.53;;;4.13;;
7025;SDS011;3554;42.132;24.786;2023-04-24T13:09:00;6.63;;;4.27;;
7025;SDS011;3554;42.132;24.786;2023-04-24T13:11:27;4.37;;;4.13;;
7025;SDS011;3554;42.132;24.786;2023-04-24T13:13:54;5.10;;;4.17;;
7025;SDS011;3554;42.132;24.786;2023-04-24T13:16:21;4.50;;;4.30;;
7025;SDS011;3554;42.132;24.786;2023-04-24T13:18:48;4.37;;;4.10;;
7025;SDS011;3554;42.132;24.786;2023-04-24T13:21:15;4.70;;;4.30;;
7025;SDS011;3554;42.132;24.786;2023-04-24T13:23:43;4.50;;;4.20;;
7025;SDS011;3554;42.132;24.786;2023-04-24T13:26:10;5.17;;;4.77;;
7025;SDS011;3554;42.132;24.786;2023-04-24T13:28:37;4.57;;;4.17;;
7025;SDS011;3554;42.132;24.786;2023-04-24T13:31:04;4.17;;;3.87;;
7025;SDS011;3554;42.132;24.786;2023-04-24T13:33:31;4.90;;;4.50;;
7025;SDS011;3554;42.132;24.786;2023-04-24T13:35:58;4.63;;;4.27;;
7025;SDS011;3554;42.132;24.786;2023-04-24T13:38:25;4.40;;;4.17;;
7025;SDS011;3554;42.132;24.786;2023-04-24T13:40:53;4.30;;;4.10;;
7025;SDS011;3554;42.132;24.786;2023-04-24T13:43:20;4.43;;;4.23;;
7025;SDS011;3554;42.132;24.786;2023-04-24T13:45:46;4.27;;;3.87;;
7025;SDS011;3554;42.132;24.786;2023-04-24T13:48:13;4.20;;;4.00;;
7025;SDS011;3554;42.132;24.786;2023-04-24T13:50:41;3.97;;;3.77;;
7025;SDS011;3554;42.132;24.786;2023-04-24T13:53:08;4.30;;;4.00;;
7025;SDS011;3554;42.132;24.786;2023-04-24T13:55:34;10.00;;;4.23;;
7025;SDS011;3554;42.132;24.786;2023-04-24T13:58:03;5.20;;;3.80;;
7025;SDS011;3554;42.132;24.786;2023-04-24T14:00:30;4.47;;;4.23;;
7025;SDS011;3554;42.132;24.786;2023-04-24T14:02:57;4.20;;;3.90;;
7025;SDS011;3554;42.132;24.786;2023-04-24T14:05:24;4.20;;;3.90;;
7025;SDS011;3554;42.132;24.786;2023-04-24T14:07:51;4.17;;;3.73;;
7025;SDS011;3554;42.132;24.786;2023-04-24T14:10:18;4.50;;;4.20;;
7025;SDS011;3554;42.132;24.786;2023-04-24T14:12:45;4.83;;;4.40;;
7025;SDS011;3554;42.132;24.786;2023-04-24T14:15:13;4.17;;;3.63;;
7025;SDS011;3554;42.132;24.786;2023-04-24T14:17:40;4.40;;;4.20;;
7025;SDS011;3554;42.132;24.786;2023-04-24T14:20:08;5.73;;;4.13;;
7025;SDS011;3554;42.132;24.786;2023-04-24T14:22:35;4.37;;;3.97;;
7025;SDS011;3554;42.132;24.786;2023-04-24T14:25:02;4.63;;;4.23;;
7025;SDS011;3554;42.132;24.786;2023-04-24T14:27:29;6.47;;;3.87;;
7025;SDS011;3554;42.132;24.786;2023-04-24T14:29:56;4.50;;;3.90;;
7025;SDS011;3554;42.132;24.786;2023-04-24T14:32:24;3.50;;;3.30;;
7025;SDS011;3554;42.132;24.786;2023-04-24T14:34:51;3.47;;;3.27;;
7025;SDS011;3554;42.132;24.786;2023-04-24T14:37:18;4.20;;;3.90;;
7025;SDS011;3554;42.132;24.786;2023-04-24T14:39:45;3.80;;;3.40;;
7025;SDS011;3554;42.132;24.786;2023-04-24T14:42:12;3.53;;;3.30;;
7025;SDS011;3554;42.132;24.786;2023-04-24T14:44:39;3.90;;;3.70;;
7025;SDS011;3554;42.132;24.786;2023-04-24T14:47:06;4.97;;;4.17;;
7025;SDS011;3554;42.132;24.786;2023-04-24T14:49:34;4.77;;;3.60;;
7025;SDS011;3554;42.132;24.786;2023-04-24T14:52:01;4.03;;;3.80;;
7025;SDS011;3554;42.132;24.786;2023-04-24T14:54:28;4.67;;;3.80;;
7025;SDS011;3554;42.132;24.786;2023-04-24T14:56:55;4.07;;;3.77;;
7025;SDS011;3554;42.132;24.786;2023-04-24T14:59:23;3.77;;;3.47;;
7025;SDS011;3554;42.132;24.786;2023-04-24T15:01:50;4.17;;;3.87;;
7025;SDS011;3554;42.132;24.786;2023-04-24T15:04:18;4.10;;;3.90;;
7025;SDS011;3554;42.132;24.786;2023-04-24T15:06:48;3.37;;;3.17;;
7025;SDS011;3554;42.132;24.786;2023-04-24T15:09:15;3.60;;;3.40;;